sensor_id;sensor_type;location;lat;lon;timestamp;temperature;humidity
24744;DHT22;12844;52.110;5.548;2022-12-07T00:01:17;21.00;51.90
24744;DHT22;12844;52.110;5.548;2022-12-07T00:03:44;21.00;52.60
24744;DHT22;12844;52.110;5.548;2022-12-07T00:06:12;21.00;51.80
24744;DHT22;12844;52.110;5.548;2022-12-07T00:08:38;21.00;51.80
24744;DHT22;12844;52.110;5.548;2022-12-07T00:11:13;21.00;51.90
24744;DHT22;12844;52.110;5.548;2022-12-07T00:13:39;21.10;51.90
24744;DHT22;12844;52.110;5.548;2022-12-07T00:16:08;21.00;51.90
24744;DHT22;12844;52.110;5.548;2022-12-07T00:18:34;21.00;52.00
24744;DHT22;12844;52.110;5.548;2022-12-07T00:21:04;21.00;52.00
24744;DHT22;12844;52.110;5.548;2022-12-07T00:23:30;21.00;51.90
24744;DHT22;12844;52.110;5.548;2022-12-07T00:26:02;20.90;51.90
24744;DHT22;12844;52.110;5.548;2022-12-07T00:28:27;20.90;51.90
24744;DHT22;12844;52.110;5.548;2022-12-07T00:31:03;20.90;51.90
24744;DHT22;12844;52.110;5.548;2022-12-07T00:33:28;20.90;51.90
24744;DHT22;12844;52.110;5.548;2022-12-07T00:35:58;20.90;52.70
24744;DHT22;12844;52.110;5.548;2022-12-07T00:38:24;20.90;52.00
24744;DHT22;12844;52.110;5.548;2022-12-07T00:41:01;20.80;51.90
24744;DHT22;12844;52.110;5.548;2022-12-07T00:43:27;20.90;52.00
24744;DHT22;12844;52.110;5.548;2022-12-07T00:45:53;20.80;51.90
24744;DHT22;12844;52.110;5.548;2022-12-07T00:48:19;20.80;51.90
24744;DHT22;12844;52.110;5.548;2022-12-07T00:50:44;20.80;52.00
24744;DHT22;12844;52.110;5.548;2022-12-07T00:53:10;20.80;51.90
24744;DHT22;12844;52.110;5.548;2022-12-07T00:55:36;20.80;51.90
24744;DHT22;12844;52.110;5.548;2022-12-07T00:58:02;20.80;51.90
24744;DHT22;12844;52.110;5.548;2022-12-07T01:00:27;20.80;51.90
24744;DHT22;12844;52.110;5.548;2022-12-07T01:02:53;20.70;51.70
24744;DHT22;12844;52.110;5.548;2022-12-07T01:05:19;20.70;51.70
24744;DHT22;12844;52.110;5.548;2022-12-07T01:07:44;20.70;51.70
24744;DHT22;12844;52.110;5.548;2022-12-07T01:10:12;20.60;51.60
24744;DHT22;12844;52.110;5.548;2022-12-07T01:12:38;20.60;51.70
24744;DHT22;12844;52.110;5.548;2022-12-07T01:15:04;20.60;51.60
24744;DHT22;12844;52.110;5.548;2022-12-07T01:17:29;20.60;51.60
24744;DHT22;12844;52.110;5.548;2022-12-07T01:19:55;20.60;51.60
24744;DHT22;12844;52.110;5.548;2022-12-07T01:22:20;20.60;51.60
24744;DHT22;12844;52.110;5.548;2022-12-07T01:24:46;20.60;51.50
24744;DHT22;12844;52.110;5.548;2022-12-07T01:27:13;20.60;51.60
24744;DHT22;12844;52.110;5.548;2022-12-07T01:29:38;20.60;51.50
24744;DHT22;12844;52.110;5.548;2022-12-07T01:32:04;20.60;51.40
24744;DHT22;12844;52.110;5.548;2022-12-07T01:34:29;20.60;51.40
24744;DHT22;12844;52.110;5.548;2022-12-07T01:36:55;20.60;51.40
24744;DHT22;12844;52.110;5.548;2022-12-07T01:39:21;20.60;51.30
24744;DHT22;12844;52.110;5.548;2022-12-07T01:41:46;20.60;51.40
24744;DHT22;12844;52.110;5.548;2022-12-07T01:44:27;20.50;51.30
24744;DHT22;12844;52.110;5.548;2022-12-07T01:47:03;20.50;51.30
24744;DHT22;12844;52.110;5.548;2022-12-07T01:49:44;20.50;51.30
24744;DHT22;12844;52.110;5.548;2022-12-07T01:52:18;20.50;51.30
24744;DHT22;12844;52.110;5.548;2022-12-07T01:54:46;20.40;51.30
24744;DHT22;12844;52.110;5.548;2022-12-07T01:57:14;20.40;51.40
24744;DHT22;12844;52.110;5.548;2022-12-07T01:59:42;20.50;51.40
24744;DHT22;12844;52.110;5.548;2022-12-07T02:02:16;20.40;51.40
24744;DHT22;12844;52.110;5.548;2022-12-07T02:04:44;20.40;51.30
24744;DHT22;12844;52.110;5.548;2022-12-07T02:07:10;20.40;51.40
24744;DHT22;12844;52.110;5.548;2022-12-07T02:09:36;20.40;51.30
24744;DHT22;12844;52.110;5.548;2022-12-07T02:12:02;20.40;51.30
24744;DHT22;12844;52.110;5.548;2022-12-07T02:14:27;20.40;51.30
24744;DHT22;12844;52.110;5.548;2022-12-07T02:20:33;20.40;51.20
24744;DHT22;12844;52.110;5.548;2022-12-07T02:25:59;20.30;51.40
24744;DHT22;12844;52.110;5.548;2022-12-07T02:28:50;20.30;51.30
24744;DHT22;12844;52.110;5.548;2022-12-07T02:31:20;20.30;51.30
24744;DHT22;12844;52.110;5.548;2022-12-07T02:33:58;20.30;51.40
24744;DHT22;12844;52.110;5.548;2022-12-07T02:36:30;20.30;51.40
24744;DHT22;12844;52.110;5.548;2022-12-07T02:39:00;20.30;51.40
24744;DHT22;12844;52.110;5.548;2022-12-07T02:42:09;20.20;51.30
24744;DHT22;12844;52.110;5.548;2022-12-07T02:44:28;20.20;51.30
24744;DHT22;12844;52.110;5.548;2022-12-07T02:47:02;20.20;51.40
24744;DHT22;12844;52.110;5.548;2022-12-07T02:49:29;20.20;51.30
24744;DHT22;12844;52.110;5.548;2022-12-07T02:51:55;20.20;51.30
24744;DHT22;12844;52.110;5.548;2022-12-07T02:54:21;20.20;51.40
24744;DHT22;12844;52.110;5.548;2022-12-07T02:56:52;20.20;51.30
24744;DHT22;12844;52.110;5.548;2022-12-07T02:59:30;20.20;51.40
24744;DHT22;12844;52.110;5.548;2022-12-07T03:02:08;20.20;51.40
24744;DHT22;12844;52.110;5.548;2022-12-07T03:12:57;20.10;51.40
24744;DHT22;12844;52.110;5.548;2022-12-07T03:15:35;20.10;51.40
24744;DHT22;12844;52.110;5.548;2022-12-07T03:18:05;20.10;51.50
24744;DHT22;12844;52.110;5.548;2022-12-07T03:20:34;20.10;51.50
24744;DHT22;12844;52.110;5.548;2022-12-07T03:23:05;20.00;51.40
24744;DHT22;12844;52.110;5.548;2022-12-07T03:25:32;20.00;51.40
24744;DHT22;12844;52.110;5.548;2022-12-07T03:28:03;20.00;51.40
24744;DHT22;12844;52.110;5.548;2022-12-07T03:30:35;20.10;51.40
24744;DHT22;12844;52.110;5.548;2022-12-07T03:33:22;20.00;51.40
24744;DHT22;12844;52.110;5.548;2022-12-07T03:36:08;20.00;51.40
24744;DHT22;12844;52.110;5.548;2022-12-07T03:38:40;20.00;51.50
24744;DHT22;12844;52.110;5.548;2022-12-07T03:41:19;20.00;51.50
24744;DHT22;12844;52.110;5.548;2022-12-07T03:43:48;20.00;51.50
24744;DHT22;12844;52.110;5.548;2022-12-07T03:49:23;20.00;51.40
24744;DHT22;12844;52.110;5.548;2022-12-07T03:54:58;19.90;51.50
24744;DHT22;12844;52.110;5.548;2022-12-07T03:57:27;19.90;51.50
24744;DHT22;12844;52.110;5.548;2022-12-07T03:59:55;19.90;51.50
24744;DHT22;12844;52.110;5.548;2022-12-07T04:02:22;19.90;51.60
24744;DHT22;12844;52.110;5.548;2022-12-07T04:04:48;19.90;51.50
24744;DHT22;12844;52.110;5.548;2022-12-07T04:07:14;19.90;51.50
24744;DHT22;12844;52.110;5.548;2022-12-07T04:09:40;19.90;51.50
24744;DHT22;12844;52.110;5.548;2022-12-07T04:12:05;19.90;51.50
24744;DHT22;12844;52.110;5.548;2022-12-07T04:14:31;19.90;51.40
24744;DHT22;12844;52.110;5.548;2022-12-07T04:16:58;19.90;51.50
24744;DHT22;12844;52.110;5.548;2022-12-07T04:19:26;19.90;51.50
24744;DHT22;12844;52.110;5.548;2022-12-07T04:21:52;19.90;51.50
24744;DHT22;12844;52.110;5.548;2022-12-07T04:24:18;19.80;51.50
24744;DHT22;12844;52.110;5.548;2022-12-07T04:26:44;19.80;51.50
24744;DHT22;12844;52.110;5.548;2022-12-07T04:29:10;19.80;51.40
24744;DHT22;12844;52.110;5.548;2022-12-07T04:31:35;19.80;51.40
24744;DHT22;12844;52.110;5.548;2022-12-07T04:34:01;19.80;51.40
24744;DHT22;12844;52.110;5.548;2022-12-07T04:36:27;19.80;51.40
24744;DHT22;12844;52.110;5.548;2022-12-07T04:38:54;19.80;51.50
24744;DHT22;12844;52.110;5.548;2022-12-07T04:41:20;19.80;51.50
24744;DHT22;12844;52.110;5.548;2022-12-07T04:43:55;19.80;51.50
24744;DHT22;12844;52.110;5.548;2022-12-07T04:46:21;19.70;51.40
24744;DHT22;12844;52.110;5.548;2022-12-07T04:48:47;19.70;51.50
24744;DHT22;12844;52.110;5.548;2022-12-07T04:51:15;19.70;51.40
24744;DHT22;12844;52.110;5.548;2022-12-07T04:53:43;19.70;51.50
24744;DHT22;12844;52.110;5.548;2022-12-07T04:56:09;19.70;51.40
24744;DHT22;12844;52.110;5.548;2022-12-07T04:58:34;19.70;51.40
24744;DHT22;12844;52.110;5.548;2022-12-07T05:01:00;19.70;51.40
24744;DHT22;12844;52.110;5.548;2022-12-07T05:03:25;19.70;51.40
24744;DHT22;12844;52.110;5.548;2022-12-07T05:05:51;19.70;51.50
24744;DHT22;12844;52.110;5.548;2022-12-07T05:08:16;19.70;51.50
24744;DHT22;12844;52.110;5.548;2022-12-07T05:10:42;19.70;51.50
24744;DHT22;12844;52.110;5.548;2022-12-07T05:13:07;19.60;51.40
24744;DHT22;12844;52.110;5.548;2022-12-07T05:15:33;19.70;51.50
24744;DHT22;12844;52.110;5.548;2022-12-07T05:17:58;19.60;51.50
24744;DHT22;12844;52.110;5.548;2022-12-07T05:20:24;19.60;51.40
24744;DHT22;12844;52.110;5.548;2022-12-07T05:22:49;19.60;51.40
24744;DHT22;12844;52.110;5.548;2022-12-07T05:25:15;19.60;51.40
24744;DHT22;12844;52.110;5.548;2022-12-07T05:27:40;19.60;51.50
24744;DHT22;12844;52.110;5.548;2022-12-07T05:30:06;19.60;51.50
24744;DHT22;12844;52.110;5.548;2022-12-07T05:32:32;19.60;51.40
24744;DHT22;12844;52.110;5.548;2022-12-07T05:34:58;19.60;51.50
24744;DHT22;12844;52.110;5.548;2022-12-07T05:37:23;19.50;51.40
24744;DHT22;12844;52.110;5.548;2022-12-07T05:39:49;19.50;51.40
24744;DHT22;12844;52.110;5.548;2022-12-07T05:42:14;19.50;51.40
24744;DHT22;12844;52.110;5.548;2022-12-07T05:44:41;19.50;51.40
24744;DHT22;12844;52.110;5.548;2022-12-07T05:47:07;19.60;51.40
24744;DHT22;12844;52.110;5.548;2022-12-07T05:49:33;19.50;51.40
24744;DHT22;12844;52.110;5.548;2022-12-07T05:51:59;19.50;51.40
24744;DHT22;12844;52.110;5.548;2022-12-07T05:54:25;19.50;51.50
24744;DHT22;12844;52.110;5.548;2022-12-07T05:56:50;19.50;51.50
24744;DHT22;12844;52.110;5.548;2022-12-07T05:59:16;19.40;51.40
24744;DHT22;12844;52.110;5.548;2022-12-07T06:01:48;19.50;51.50
24744;DHT22;12844;52.110;5.548;2022-12-07T06:04:13;19.40;51.40
24744;DHT22;12844;52.110;5.548;2022-12-07T06:06:39;19.40;51.40
24744;DHT22;12844;52.110;5.548;2022-12-07T06:09:05;19.40;51.40
24744;DHT22;12844;52.110;5.548;2022-12-07T06:11:30;19.50;51.40
24744;DHT22;12844;52.110;5.548;2022-12-07T06:14:14;19.40;51.40
24744;DHT22;12844;52.110;5.548;2022-12-07T06:16:40;19.40;51.40
24744;DHT22;12844;52.110;5.548;2022-12-07T06:19:05;19.40;51.40
24744;DHT22;12844;52.110;5.548;2022-12-07T06:21:31;19.40;51.40
24744;DHT22;12844;52.110;5.548;2022-12-07T06:23:56;19.40;51.30
24744;DHT22;12844;52.110;5.548;2022-12-07T06:26:22;19.40;51.40
24744;DHT22;12844;52.110;5.548;2022-12-07T06:28:48;19.40;51.40
24744;DHT22;12844;52.110;5.548;2022-12-07T06:31:13;19.40;51.40
24744;DHT22;12844;52.110;5.548;2022-12-07T06:33:39;19.40;51.40
24744;DHT22;12844;52.110;5.548;2022-12-07T06:36:04;19.40;51.30
24744;DHT22;12844;52.110;5.548;2022-12-07T06:38:30;19.40;51.40
24744;DHT22;12844;52.110;5.548;2022-12-07T06:40:55;19.30;51.30
24744;DHT22;12844;52.110;5.548;2022-12-07T06:43:21;19.30;51.30
24744;DHT22;12844;52.110;5.548;2022-12-07T06:45:46;19.30;51.40
24744;DHT22;12844;52.110;5.548;2022-12-07T06:48:12;19.30;51.30
24744;DHT22;12844;52.110;5.548;2022-12-07T06:50:38;19.30;51.30
24744;DHT22;12844;52.110;5.548;2022-12-07T06:53:03;19.30;51.30
24744;DHT22;12844;52.110;5.548;2022-12-07T06:55:29;19.30;51.30
24744;DHT22;12844;52.110;5.548;2022-12-07T06:57:54;19.30;51.90
24744;DHT22;12844;52.110;5.548;2022-12-07T07:00:20;19.30;51.40
24744;DHT22;12844;52.110;5.548;2022-12-07T07:02:45;19.30;51.40
24744;DHT22;12844;52.110;5.548;2022-12-07T07:15:33;19.20;51.30
24744;DHT22;12844;52.110;5.548;2022-12-07T07:17:59;19.30;51.40
24744;DHT22;12844;52.110;5.548;2022-12-07T07:20:24;19.20;51.30
24744;DHT22;12844;52.110;5.548;2022-12-07T07:22:50;19.20;51.30
24744;DHT22;12844;52.110;5.548;2022-12-07T07:25:16;19.20;51.40
24744;DHT22;12844;52.110;5.548;2022-12-07T07:30:11;19.20;51.40
24744;DHT22;12844;52.110;5.548;2022-12-07T07:32:37;19.20;51.40
24744;DHT22;12844;52.110;5.548;2022-12-07T07:35:03;19.10;51.30
24744;DHT22;12844;52.110;5.548;2022-12-07T07:37:29;19.20;51.40
24744;DHT22;12844;52.110;5.548;2022-12-07T07:39:54;19.20;51.40
24744;DHT22;12844;52.110;5.548;2022-12-07T07:42:20;19.10;51.40
24744;DHT22;12844;52.110;5.548;2022-12-07T07:44:45;19.10;51.40
24744;DHT22;12844;52.110;5.548;2022-12-07T07:47:11;19.10;51.40
24744;DHT22;12844;52.110;5.548;2022-12-07T07:49:36;19.10;51.40
24744;DHT22;12844;52.110;5.548;2022-12-07T07:52:02;19.10;51.40
24744;DHT22;12844;52.110;5.548;2022-12-07T07:54:28;19.10;51.40
24744;DHT22;12844;52.110;5.548;2022-12-07T07:56:54;19.10;51.30
24744;DHT22;12844;52.110;5.548;2022-12-07T07:59:19;19.10;51.40
24744;DHT22;12844;52.110;5.548;2022-12-07T08:01:45;19.10;51.40
24744;DHT22;12844;52.110;5.548;2022-12-07T08:04:10;19.10;52.00
24744;DHT22;12844;52.110;5.548;2022-12-07T08:06:36;19.10;51.40
24744;DHT22;12844;52.110;5.548;2022-12-07T08:09:02;19.10;51.50
24744;DHT22;12844;52.110;5.548;2022-12-07T08:11:28;19.00;51.80
24744;DHT22;12844;52.110;5.548;2022-12-07T08:13:53;19.10;52.00
24744;DHT22;12844;52.110;5.548;2022-12-07T08:16:19;19.10;52.00
24744;DHT22;12844;52.110;5.548;2022-12-07T08:18:45;19.30;52.00
24744;DHT22;12844;52.110;5.548;2022-12-07T08:21:13;19.40;52.00
24744;DHT22;12844;52.110;5.548;2022-12-07T08:23:39;19.60;52.00
24744;DHT22;12844;52.110;5.548;2022-12-07T08:26:14;19.80;51.90
24744;DHT22;12844;52.110;5.548;2022-12-07T08:28:40;20.00;51.70
24744;DHT22;12844;52.110;5.548;2022-12-07T08:31:11;20.20;51.50
24744;DHT22;12844;52.110;5.548;2022-12-07T08:33:37;20.40;51.50
24744;DHT22;12844;52.110;5.548;2022-12-07T08:36:07;20.60;51.20
24744;DHT22;12844;52.110;5.548;2022-12-07T08:38:35;20.60;51.20
24744;DHT22;12844;52.110;5.548;2022-12-07T08:41:01;20.70;51.00
24744;DHT22;12844;52.110;5.548;2022-12-07T08:43:27;20.80;50.90
24744;DHT22;12844;52.110;5.548;2022-12-07T08:46:16;20.90;50.80
24744;DHT22;12844;52.110;5.548;2022-12-07T08:51:44;20.90;50.80
24744;DHT22;12844;52.110;5.548;2022-12-07T08:54:16;20.90;50.80
24744;DHT22;12844;52.110;5.548;2022-12-07T08:56:42;21.00;50.90
24744;DHT22;12844;52.110;5.548;2022-12-07T08:59:09;20.90;50.80
24744;DHT22;12844;52.110;5.548;2022-12-07T09:01:35;20.80;50.90
24744;DHT22;12844;52.110;5.548;2022-12-07T09:04:00;20.90;50.80
24744;DHT22;12844;52.110;5.548;2022-12-07T09:06:26;20.90;50.80
24744;DHT22;12844;52.110;5.548;2022-12-07T09:08:55;20.80;50.80
24744;DHT22;12844;52.110;5.548;2022-12-07T09:11:23;20.80;50.80
24744;DHT22;12844;52.110;5.548;2022-12-07T09:13:48;20.80;50.80
24744;DHT22;12844;52.110;5.548;2022-12-07T09:16:14;20.80;50.80
24744;DHT22;12844;52.110;5.548;2022-12-07T09:18:40;20.80;50.80
24744;DHT22;12844;52.110;5.548;2022-12-07T09:21:05;20.80;51.00
24744;DHT22;12844;52.110;5.548;2022-12-07T09:23:31;20.70;51.00
24744;DHT22;12844;52.110;5.548;2022-12-07T09:26:01;20.70;51.30
24744;DHT22;12844;52.110;5.548;2022-12-07T09:28:27;20.70;51.30
24744;DHT22;12844;52.110;5.548;2022-12-07T09:30:52;20.60;51.40
24744;DHT22;12844;52.110;5.548;2022-12-07T09:33:18;20.50;51.80
24744;DHT22;12844;52.110;5.548;2022-12-07T09:35:45;20.60;51.60
24744;DHT22;12844;52.110;5.548;2022-12-07T09:38:11;20.60;51.60
24744;DHT22;12844;52.110;5.548;2022-12-07T09:40:37;20.60;51.80
24744;DHT22;12844;52.110;5.548;2022-12-07T09:43:02;20.70;52.00
24744;DHT22;12844;52.110;5.548;2022-12-07T09:45:34;20.90;51.70
24744;DHT22;12844;52.110;5.548;2022-12-07T09:48:02;20.90;51.90
24744;DHT22;12844;52.110;5.548;2022-12-07T09:50:28;21.10;51.80
24744;DHT22;12844;52.110;5.548;2022-12-07T09:53:04;21.20;51.60
24744;DHT22;12844;52.110;5.548;2022-12-07T09:55:31;21.20;51.30
24744;DHT22;12844;52.110;5.548;2022-12-07T09:57:58;21.30;51.30
24744;DHT22;12844;52.110;5.548;2022-12-07T10:00:25;21.30;51.80
24744;DHT22;12844;52.110;5.548;2022-12-07T10:02:57;21.30;51.10
24744;DHT22;12844;52.110;5.548;2022-12-07T10:07:52;21.20;51.30
24744;DHT22;12844;52.110;5.548;2022-12-07T10:10:25;21.20;51.20
24744;DHT22;12844;52.110;5.548;2022-12-07T10:13:00;21.20;51.10
24744;DHT22;12844;52.110;5.548;2022-12-07T10:15:48;21.20;51.00
24744;DHT22;12844;52.110;5.548;2022-12-07T10:20:47;21.10;51.20
24744;DHT22;12844;52.110;5.548;2022-12-07T10:23:16;21.10;51.10
24744;DHT22;12844;52.110;5.548;2022-12-07T10:25:42;21.00;50.90
24744;DHT22;12844;52.110;5.548;2022-12-07T10:30:59;21.00;51.20
24744;DHT22;12844;52.110;5.548;2022-12-07T10:33:38;20.90;50.80
24744;DHT22;12844;52.110;5.548;2022-12-07T10:36:38;20.90;50.90
24744;DHT22;12844;52.110;5.548;2022-12-07T10:39:18;20.90;51.10
24744;DHT22;12844;52.110;5.548;2022-12-07T10:42:01;20.80;51.10
24744;DHT22;12844;52.110;5.548;2022-12-07T10:44:29;20.80;51.10
24744;DHT22;12844;52.110;5.548;2022-12-07T10:55:20;20.60;51.60
24744;DHT22;12844;52.110;5.548;2022-12-07T11:01:25;20.60;52.00
24744;DHT22;12844;52.110;5.548;2022-12-07T11:04:14;20.70;52.00
24744;DHT22;12844;52.110;5.548;2022-12-07T11:12:15;21.10;51.70
24744;DHT22;12844;52.110;5.548;2022-12-07T11:15:21;21.30;51.60
24744;DHT22;12844;52.110;5.548;2022-12-07T11:17:55;21.40;51.40
24744;DHT22;12844;52.110;5.548;2022-12-07T11:20:35;21.60;51.20
24744;DHT22;12844;52.110;5.548;2022-12-07T11:25:43;21.70;51.10
24744;DHT22;12844;52.110;5.548;2022-12-07T11:31:18;21.80;50.80
24744;DHT22;12844;52.110;5.548;2022-12-07T11:33:53;21.70;50.70
24744;DHT22;12844;52.110;5.548;2022-12-07T11:36:45;21.70;50.90
24744;DHT22;12844;52.110;5.548;2022-12-07T11:41:48;21.60;50.90
24744;DHT22;12844;52.110;5.548;2022-12-07T11:49:54;21.60;50.80
24744;DHT22;12844;52.110;5.548;2022-12-07T11:52:45;21.60;50.80
24744;DHT22;12844;52.110;5.548;2022-12-07T11:58:03;21.50;51.10
24744;DHT22;12844;52.110;5.548;2022-12-07T12:00:29;21.40;51.10
24744;DHT22;12844;52.110;5.548;2022-12-07T12:03:11;21.50;51.10
24744;DHT22;12844;52.110;5.548;2022-12-07T12:05:40;21.60;51.10
24744;DHT22;12844;52.110;5.548;2022-12-07T12:08:19;21.70;51.10
24744;DHT22;12844;52.110;5.548;2022-12-07T12:14:03;22.00;50.90
24744;DHT22;12844;52.110;5.548;2022-12-07T12:17:05;22.00;50.90
24744;DHT22;12844;52.110;5.548;2022-12-07T12:22:43;22.10;50.70
24744;DHT22;12844;52.110;5.548;2022-12-07T12:25:46;22.10;50.80
24744;DHT22;12844;52.110;5.548;2022-12-07T12:33:35;22.00;50.80
24744;DHT22;12844;52.110;5.548;2022-12-07T12:47:02;21.90;50.90
24744;DHT22;12844;52.110;5.548;2022-12-07T12:49:36;21.80;50.90
24744;DHT22;12844;52.110;5.548;2022-12-07T12:55:10;21.70;51.10
24744;DHT22;12844;52.110;5.548;2022-12-07T12:57:37;21.70;51.00
24744;DHT22;12844;52.110;5.548;2022-12-07T13:00:20;21.60;51.10
24744;DHT22;12844;52.110;5.548;2022-12-07T13:02:54;21.60;51.30
24744;DHT22;12844;52.110;5.548;2022-12-07T13:05:21;21.60;51.40
24744;DHT22;12844;52.110;5.548;2022-12-07T13:10:24;21.50;51.40
24744;DHT22;12844;52.110;5.548;2022-12-07T13:12:57;21.50;51.40
24744;DHT22;12844;52.110;5.548;2022-12-07T13:18:00;21.40;51.60
24744;DHT22;12844;52.110;5.548;2022-12-07T13:23:10;21.30;51.50
24744;DHT22;12844;52.110;5.548;2022-12-07T13:25:45;21.20;51.60
24744;DHT22;12844;52.110;5.548;2022-12-07T13:28:20;21.20;51.50
24744;DHT22;12844;52.110;5.548;2022-12-07T13:31:04;21.20;51.60
24744;DHT22;12844;52.110;5.548;2022-12-07T13:33:35;21.20;51.40
24744;DHT22;12844;52.110;5.548;2022-12-07T13:36:00;21.20;51.00
24744;DHT22;12844;52.110;5.548;2022-12-07T15:50:36;20.30;51.20
24744;DHT22;12844;52.110;5.548;2022-12-07T15:53:01;20.30;51.20
24744;DHT22;12844;52.110;5.548;2022-12-07T15:55:27;20.20;51.20
24744;DHT22;12844;52.110;5.548;2022-12-07T15:57:52;20.20;51.20
24744;DHT22;12844;52.110;5.548;2022-12-07T16:00:18;20.20;51.30
24744;DHT22;12844;52.110;5.548;2022-12-07T16:02:44;20.20;51.30
24744;DHT22;12844;52.110;5.548;2022-12-07T16:05:09;20.20;51.30
24744;DHT22;12844;52.110;5.548;2022-12-07T16:07:35;20.20;51.20
24744;DHT22;12844;52.110;5.548;2022-12-07T16:10:00;20.10;51.20
24744;DHT22;12844;52.110;5.548;2022-12-07T16:12:26;20.10;51.20
24744;DHT22;12844;52.110;5.548;2022-12-07T16:14:51;20.10;51.20
24744;DHT22;12844;52.110;5.548;2022-12-07T16:17:17;20.10;51.20
24744;DHT22;12844;52.110;5.548;2022-12-07T16:19:42;20.10;51.20
24744;DHT22;12844;52.110;5.548;2022-12-07T16:22:08;20.10;51.30
24744;DHT22;12844;52.110;5.548;2022-12-07T16:24:33;20.10;51.30
24744;DHT22;12844;52.110;5.548;2022-12-07T16:26:59;20.10;51.30
24744;DHT22;12844;52.110;5.548;2022-12-07T16:29:25;20.00;51.20
24744;DHT22;12844;52.110;5.548;2022-12-07T16:31:51;20.00;51.20
24744;DHT22;12844;52.110;5.548;2022-12-07T16:34:17;20.00;51.20
24744;DHT22;12844;52.110;5.548;2022-12-07T16:36:42;20.00;51.20
24744;DHT22;12844;52.110;5.548;2022-12-07T16:39:09;20.00;51.90
24744;DHT22;12844;52.110;5.548;2022-12-07T16:41:34;20.00;51.20
24744;DHT22;12844;52.110;5.548;2022-12-07T16:44:06;20.00;51.20
24744;DHT22;12844;52.110;5.548;2022-12-07T16:46:35;20.00;51.20
24744;DHT22;12844;52.110;5.548;2022-12-07T16:49:02;20.00;51.20
24744;DHT22;12844;52.110;5.548;2022-12-07T16:51:28;20.00;51.20
24744;DHT22;12844;52.110;5.548;2022-12-07T16:53:54;19.90;51.20
24744;DHT22;12844;52.110;5.548;2022-12-07T16:56:20;19.90;51.20
24744;DHT22;12844;52.110;5.548;2022-12-07T16:58:45;19.90;51.20
24744;DHT22;12844;52.110;5.548;2022-12-07T17:01:19;19.90;51.20
24744;DHT22;12844;52.110;5.548;2022-12-07T17:03:45;19.90;51.20
24744;DHT22;12844;52.110;5.548;2022-12-07T17:06:22;19.90;51.30
24744;DHT22;12844;52.110;5.548;2022-12-07T17:08:48;19.90;51.20
24744;DHT22;12844;52.110;5.548;2022-12-07T17:11:21;19.80;51.30
24744;DHT22;12844;52.110;5.548;2022-12-07T17:13:47;19.80;51.30
24744;DHT22;12844;52.110;5.548;2022-12-07T17:16:32;19.80;51.30
24744;DHT22;12844;52.110;5.548;2022-12-07T17:18:58;19.80;51.30
24744;DHT22;12844;52.110;5.548;2022-12-07T17:21:24;19.80;51.30
24744;DHT22;12844;52.110;5.548;2022-12-07T17:23:50;19.80;51.30
24744;DHT22;12844;52.110;5.548;2022-12-07T17:26:21;19.70;51.40
24744;DHT22;12844;52.110;5.548;2022-12-07T17:28:47;19.70;51.70
24744;DHT22;12844;52.110;5.548;2022-12-07T17:31:15;19.70;51.40
24744;DHT22;12844;52.110;5.548;2022-12-07T17:33:42;19.70;51.30
24744;DHT22;12844;52.110;5.548;2022-12-07T17:36:32;19.70;51.30
24744;DHT22;12844;52.110;5.548;2022-12-07T17:38:57;19.80;51.30
24744;DHT22;12844;52.110;5.548;2022-12-07T17:41:25;19.70;51.20
24744;DHT22;12844;52.110;5.548;2022-12-07T17:44:11;19.70;51.20
24744;DHT22;12844;52.110;5.548;2022-12-07T17:46:38;19.70;51.20
24744;DHT22;12844;52.110;5.548;2022-12-07T17:49:04;19.70;51.20
24744;DHT22;12844;52.110;5.548;2022-12-07T17:51:30;19.70;51.20
24744;DHT22;12844;52.110;5.548;2022-12-07T17:54:14;19.70;51.20
24744;DHT22;12844;52.110;5.548;2022-12-07T17:56:40;19.70;51.20
24744;DHT22;12844;52.110;5.548;2022-12-07T17:59:06;19.70;51.20
24744;DHT22;12844;52.110;5.548;2022-12-07T18:01:32;19.70;51.20
24744;DHT22;12844;52.110;5.548;2022-12-07T18:03:58;19.70;51.20
24744;DHT22;12844;52.110;5.548;2022-12-07T18:06:23;19.70;51.20
24744;DHT22;12844;52.110;5.548;2022-12-07T18:08:49;19.70;51.10
24744;DHT22;12844;52.110;5.548;2022-12-07T18:11:15;19.70;51.20
24744;DHT22;12844;52.110;5.548;2022-12-07T18:13:41;19.70;51.20
24744;DHT22;12844;52.110;5.548;2022-12-07T18:16:15;19.70;51.10
24744;DHT22;12844;52.110;5.548;2022-12-07T18:18:42;19.70;51.10
24744;DHT22;12844;52.110;5.548;2022-12-07T18:21:10;19.60;51.20
24744;DHT22;12844;52.110;5.548;2022-12-07T18:23:38;19.60;51.10
24744;DHT22;12844;52.110;5.548;2022-12-07T18:26:04;19.60;51.20
24744;DHT22;12844;52.110;5.548;2022-12-07T18:28:30;19.60;51.10
24744;DHT22;12844;52.110;5.548;2022-12-07T18:30:55;19.60;51.20
24744;DHT22;12844;52.110;5.548;2022-12-07T18:33:21;19.60;51.20
24744;DHT22;12844;52.110;5.548;2022-12-07T18:35:47;19.60;51.10
24744;DHT22;12844;52.110;5.548;2022-12-07T18:38:13;19.60;51.20
24744;DHT22;12844;52.110;5.548;2022-12-07T18:40:40;19.50;51.20
24744;DHT22;12844;52.110;5.548;2022-12-07T18:43:06;19.60;51.20
24744;DHT22;12844;52.110;5.548;2022-12-07T18:45:36;19.50;51.20
24744;DHT22;12844;52.110;5.548;2022-12-07T18:48:03;19.50;51.20
24744;DHT22;12844;52.110;5.548;2022-12-07T18:50:29;19.50;51.10
24744;DHT22;12844;52.110;5.548;2022-12-07T18:53:02;19.50;51.20
24744;DHT22;12844;52.110;5.548;2022-12-07T18:55:29;19.50;51.20
24744;DHT22;12844;52.110;5.548;2022-12-07T18:57:56;19.50;51.20
24744;DHT22;12844;52.110;5.548;2022-12-07T19:00:23;19.50;51.20
24744;DHT22;12844;52.110;5.548;2022-12-07T19:02:49;19.50;51.10
24744;DHT22;12844;52.110;5.548;2022-12-07T19:05:16;19.50;51.10
24744;DHT22;12844;52.110;5.548;2022-12-07T19:07:43;19.50;51.10
24744;DHT22;12844;52.110;5.548;2022-12-07T19:10:09;19.50;51.10
24744;DHT22;12844;52.110;5.548;2022-12-07T19:12:35;19.50;51.10
24744;DHT22;12844;52.110;5.548;2022-12-07T19:15:01;19.50;51.00
24744;DHT22;12844;52.110;5.548;2022-12-07T19:17:27;19.50;51.10
24744;DHT22;12844;52.110;5.548;2022-12-07T19:19:52;19.50;51.10
24744;DHT22;12844;52.110;5.548;2022-12-07T19:22:20;19.50;51.10
24744;DHT22;12844;52.110;5.548;2022-12-07T19:24:48;19.50;51.10
24744;DHT22;12844;52.110;5.548;2022-12-07T19:27:14;19.50;51.10
24744;DHT22;12844;52.110;5.548;2022-12-07T19:29:41;19.40;51.00
24744;DHT22;12844;52.110;5.548;2022-12-07T19:32:07;19.50;51.10
24744;DHT22;12844;52.110;5.548;2022-12-07T19:34:35;19.50;51.10
24744;DHT22;12844;52.110;5.548;2022-12-07T19:37:00;19.40;51.10
24744;DHT22;12844;52.110;5.548;2022-12-07T19:39:26;19.40;51.00
24744;DHT22;12844;52.110;5.548;2022-12-07T19:41:52;19.40;51.10
24744;DHT22;12844;52.110;5.548;2022-12-07T19:44:19;19.40;51.10